createdAt,value
2018-12-30T00:01:09.818Z,3.43
2018-12-30T00:03:39.788Z,3.30
2018-12-30T00:06:09.310Z,3.00
2018-12-30T00:08:38.949Z,2.83
2018-12-30T00:11:08.590Z,2.90
2018-12-30T00:13:38.114Z,2.90
2018-12-30T00:16:08.113Z,2.23
2018-12-30T00:18:37.633Z,2.13
2018-12-30T00:21:09.076Z,2.10
2018-12-30T00:23:38.358Z,3.10
2018-12-30T00:26:07.757Z,2.30
2018-12-30T00:28:37.037Z,2.60
2018-12-30T00:31:07.284Z,2.43
2018-12-30T00:33:36.681Z,2.10
2018-12-30T00:36:06.560Z,2.10
2018-12-30T00:38:36.201Z,1.67
2018-12-30T00:41:05.845Z,2.10
2018-12-30T00:43:35.483Z,2.40
2018-12-30T00:46:05.125Z,2.17
2018-12-30T00:48:34.766Z,2.00
2018-12-30T00:51:04.121Z,2.50
2018-12-30T00:53:33.568Z,2.00
2018-12-30T00:56:02.850Z,2.17
2018-12-30T00:58:32.369Z,2.63
2018-12-30T01:01:01.891Z,2.30
2018-12-30T01:03:31.172Z,1.93
2018-12-30T01:06:00.453Z,2.00
2018-12-30T01:08:30.095Z,2.57
2018-12-30T01:10:59.378Z,1.80
2018-12-30T01:13:29.019Z,2.20
2018-12-30T01:15:59.518Z,2.00
2018-12-30T01:18:29.878Z,1.53
2018-12-30T01:21:00.355Z,1.83
2018-12-30T01:23:31.183Z,1.80
2018-12-30T01:26:01.687Z,1.40
2018-12-30T01:28:32.033Z,1.70
2018-12-30T01:31:02.514Z,1.57
2018-12-30T01:33:32.878Z,1.67
2018-12-30T01:36:03.113Z,1.60
2018-12-30T01:38:33.238Z,1.70
2018-12-30T01:41:03.360Z,1.90
2018-12-30T01:43:33.595Z,1.60
2018-12-30T01:46:03.953Z,1.53
2018-12-30T01:48:54.954Z,1.60
2018-12-30T01:51:32.854Z,1.60
2018-12-30T01:53:56.776Z,1.40
2018-12-30T01:56:26.876Z,1.73
2018-12-30T01:58:56.877Z,1.07
2018-12-30T02:01:26.898Z,1.03
2018-12-30T02:03:56.644Z,1.00
2018-12-30T02:06:27.241Z,1.00
2018-12-30T02:08:57.240Z,0.93
2018-12-30T02:11:27.001Z,0.90
2018-12-30T02:13:56.642Z,0.80
2018-12-30T02:16:26.782Z,1.07
2018-12-30T02:18:56.404Z,0.83
2018-12-30T02:21:26.526Z,0.87
2018-12-30T02:23:56.539Z,0.97
2018-12-30T02:26:26.530Z,0.87
2018-12-30T02:28:56.544Z,0.90
2018-12-30T02:31:26.170Z,1.10
2018-12-30T02:33:56.412Z,0.90
2018-12-30T02:36:25.944Z,0.80
2018-12-30T02:38:55.454Z,0.80
2018-12-30T02:41:27.748Z,1.00
2018-12-30T02:43:57.857Z,0.97
2018-12-30T02:46:27.636Z,0.70
2018-12-30T02:48:57.140Z,1.00
2018-12-30T02:51:29.902Z,0.90
2018-12-30T02:53:59.422Z,0.80
2018-12-30T02:56:28.944Z,0.80
2018-12-30T02:58:58.765Z,0.70
2018-12-30T03:01:28.345Z,0.93
2018-12-30T03:03:57.750Z,1.10
2018-12-30T03:06:27.387Z,1.40
2018-12-30T03:08:57.508Z,0.90
2018-12-30T03:11:26.910Z,0.70
2018-12-30T03:13:56.308Z,0.90
2018-12-30T03:16:25.566Z,1.00
2018-12-30T03:18:54.751Z,1.03
2018-12-30T03:21:23.911Z,0.90
2018-12-30T03:23:53.042Z,0.90
2018-12-30T03:26:22.205Z,1.13
2018-12-30T03:28:51.669Z,1.37
2018-12-30T03:31:21.431Z,1.20
2018-12-30T03:33:51.191Z,1.70
2018-12-30T03:36:20.952Z,1.10
2018-12-30T03:38:50.231Z,1.67
2018-12-30T03:41:19.634Z,1.33
2018-12-30T03:43:48.915Z,1.47
2018-12-30T03:46:18.196Z,1.00
2018-12-30T03:48:47.836Z,1.53
2018-12-30T03:51:17.116Z,1.60
2018-12-30T03:53:46.519Z,1.50
2018-12-30T03:56:15.800Z,1.67
2018-12-30T03:58:45.443Z,1.60
2018-12-30T04:01:14.722Z,1.50
2018-12-30T04:03:44.004Z,1.60
2018-12-30T04:06:13.283Z,2.00
2018-12-30T04:08:42.565Z,2.13
2018-12-30T04:11:11.846Z,1.80
2018-12-30T04:13:41.127Z,1.70
2018-12-30T04:16:15.465Z,2.37
2018-12-30T04:18:46.080Z,2.73
2018-12-30T04:21:16.552Z,2.40
2018-12-30T04:23:47.148Z,1.97
2018-12-30T04:26:17.518Z,2.30
2018-12-30T04:28:47.989Z,2.07
2018-12-30T04:31:18.227Z,2.50
2018-12-30T04:33:47.540Z,2.17
2018-12-30T04:36:17.322Z,2.73
2018-12-30T04:38:46.949Z,2.97
2018-12-30T04:41:16.711Z,2.40
2018-12-30T04:43:46.465Z,2.90
2018-12-30T04:46:16.236Z,2.73
2018-12-30T04:48:45.873Z,2.27
2018-12-30T04:51:15.150Z,2.83
2018-12-30T04:53:44.438Z,2.90
2018-12-30T04:56:14.193Z,1.77
2018-12-30T04:58:43.469Z,2.80
2018-12-30T05:01:12.872Z,3.00
2018-12-30T05:03:42.273Z,2.00
2018-12-30T05:06:11.553Z,1.83
2018-12-30T05:08:40.841Z,1.90
2018-12-30T05:11:10.720Z,2.00
2018-12-30T05:13:40.116Z,1.50
2018-12-30T05:16:09.886Z,1.47
2018-12-30T05:18:40.119Z,1.60
2018-12-30T05:21:09.883Z,2.30
2018-12-30T05:23:39.788Z,2.20
2018-12-30T05:26:09.794Z,1.90
2018-12-30T05:28:39.643Z,2.00
2018-12-30T05:31:09.284Z,1.93
2018-12-30T05:33:38.930Z,2.20
2018-12-30T05:36:08.809Z,1.73
2018-12-30T05:38:38.567Z,2.00
2018-12-30T05:41:08.344Z,1.80
2018-12-30T05:43:37.977Z,1.70
2018-12-30T05:46:08.089Z,1.60
2018-12-30T05:48:37.909Z,1.67
2018-12-30T05:51:07.732Z,1.50
2018-12-30T05:53:37.373Z,1.73
2018-12-30T05:56:07.016Z,1.50
2018-12-30T05:58:36.416Z,1.40
2018-12-30T06:01:06.658Z,1.43
2018-12-30T06:03:36.058Z,1.50
2018-12-30T06:06:05.700Z,1.50
2018-12-30T06:08:35.219Z,1.70
2018-12-30T06:11:05.102Z,1.60
2018-12-30T06:13:34.622Z,1.30
2018-12-30T06:16:04.143Z,1.93
2018-12-30T06:18:34.035Z,1.50
2018-12-30T06:21:03.547Z,1.30
2018-12-30T06:23:33.067Z,1.43
2018-12-30T06:26:02.707Z,1.57
2018-12-30T06:28:32.108Z,1.37
2018-12-30T06:31:01.509Z,1.80
2018-12-30T06:33:30.909Z,1.60
2018-12-30T06:36:00.311Z,1.70
2018-12-30T06:38:30.073Z,1.50
2018-12-30T06:40:59.596Z,1.43
2018-12-30T06:43:29.113Z,1.57
2018-12-30T06:45:59.119Z,1.83
2018-12-30T06:48:28.760Z,1.33
2018-12-30T06:50:58.278Z,1.65
2018-12-30T06:56:59.892Z,1.43
2018-12-30T06:59:29.602Z,1.10
2018-12-30T07:02:00.333Z,1.40
2018-12-30T07:04:30.205Z,1.90
2018-12-30T07:06:59.966Z,1.73
2018-12-30T07:09:30.090Z,1.30
2018-12-30T07:11:59.846Z,1.10
2018-12-30T07:14:29.608Z,1.00
2018-12-30T07:16:59.489Z,1.40
2018-12-30T07:19:29.131Z,1.47
2018-12-30T07:21:59.132Z,1.83
2018-12-30T07:24:29.015Z,1.33
2018-12-30T07:26:58.893Z,1.30
2018-12-30T07:29:28.775Z,1.40
2018-12-30T07:31:59.024Z,1.03
2018-12-30T07:34:29.017Z,1.20
2018-12-30T07:36:59.174Z,1.20
2018-12-30T07:39:29.261Z,1.20
2018-12-30T07:41:59.412Z,1.50
2018-12-30T07:44:29.292Z,1.10
2018-12-30T07:46:59.415Z,1.00
2018-12-30T07:49:29.893Z,1.57
2018-12-30T07:52:00.254Z,1.40
2018-12-30T07:54:30.616Z,1.30
2018-12-30T07:57:02.295Z,1.40
2018-12-30T07:59:33.012Z,1.53
2018-12-30T08:02:03.870Z,1.33
2018-12-30T08:04:34.575Z,1.00
2018-12-30T08:07:08.535Z,1.23
2018-12-30T08:09:39.254Z,1.40
2018-12-30T08:12:10.098Z,1.30
2018-12-30T08:14:40.935Z,1.27
2018-12-30T08:17:11.783Z,1.50
2018-12-30T08:19:42.501Z,1.33
2018-12-30T08:22:12.859Z,1.30
2018-12-30T08:24:43.216Z,1.50
2018-12-30T08:27:13.582Z,1.57
2018-12-30T08:29:44.177Z,1.53
2018-12-30T08:32:14.540Z,1.40
2018-12-30T08:34:44.897Z,1.80
2018-12-30T08:37:15.257Z,1.77
2018-12-30T08:39:46.699Z,1.70
2018-12-30T08:42:17.903Z,1.87
2018-12-30T08:44:48.265Z,1.70
2018-12-30T08:47:19.963Z,2.10
2018-12-30T08:49:50.297Z,1.83
2018-12-30T08:52:21.267Z,1.60
2018-12-30T08:54:51.385Z,1.80
2018-12-30T08:57:21.379Z,1.83
2018-12-30T08:59:51.979Z,1.50
2018-12-30T09:02:21.872Z,1.70
2018-12-30T09:04:51.498Z,1.30
2018-12-30T09:07:21.262Z,1.97
2018-12-30T09:09:51.022Z,1.50
2018-12-30T09:12:21.407Z,2.07
2018-12-30T09:14:51.503Z,2.07
2018-12-30T09:17:21.623Z,2.23
2018-12-30T09:19:51.385Z,2.03
2018-12-30T09:22:23.812Z,1.73
2018-12-30T09:24:57.873Z,1.80
2018-12-30T09:27:30.045Z,1.90
2018-12-30T09:30:00.869Z,1.97
2018-12-30T09:32:30.781Z,1.83
2018-12-30T09:35:03.635Z,1.77
2018-12-30T09:37:46.606Z,1.90
2018-12-30T09:40:27.875Z,2.07
2018-12-30T09:42:58.968Z,1.50
2018-12-30T09:45:29.721Z,1.90
2018-12-30T09:48:02.448Z,1.70
2018-12-30T09:50:34.848Z,2.20
2018-12-30T09:53:07.732Z,1.47
2018-12-30T09:55:37.492Z,1.83
2018-12-30T09:58:10.255Z,1.80
2018-12-30T10:00:39.901Z,1.60
2018-12-30T10:03:14.328Z,1.90
2018-12-30T10:05:47.324Z,1.93
2018-12-30T10:08:19.863Z,1.90
2018-12-30T10:10:49.846Z,1.63
2018-12-30T10:13:20.688Z,2.00
2018-12-30T10:15:50.360Z,1.80
2018-12-30T10:18:22.970Z,1.90
2018-12-30T10:20:52.742Z,1.60
2018-12-30T10:23:22.623Z,1.57
2018-12-30T10:25:52.251Z,2.50
2018-12-30T10:28:26.093Z,2.10
2018-12-30T10:30:55.375Z,1.93
2018-12-30T10:33:28.016Z,2.00
2018-12-30T10:35:57.417Z,2.07
2018-12-30T10:38:26.822Z,2.27
2018-12-30T10:40:56.218Z,1.93
2018-12-30T10:43:25.499Z,2.57
2018-12-30T10:45:54.901Z,2.03
2018-12-30T10:48:24.302Z,2.00
2018-12-30T10:50:53.582Z,2.00
2018-12-30T10:53:22.985Z,1.83
2018-12-30T10:55:52.265Z,1.83
2018-12-30T10:58:21.786Z,2.23
2018-12-30T11:00:51.073Z,1.50
2018-12-30T11:03:20.468Z,1.70
2018-12-30T11:05:50.110Z,2.07
2018-12-30T11:08:19.389Z,1.60
2018-12-30T11:10:48.792Z,1.57
2018-12-30T11:13:18.073Z,1.90
2018-12-30T11:15:47.953Z,1.50
2018-12-30T11:18:17.236Z,2.30
2018-12-30T11:20:46.635Z,2.10
2018-12-30T11:23:15.919Z,2.37
2018-12-30T11:25:45.196Z,1.63
2018-12-30T11:28:14.479Z,2.17
2018-12-30T11:30:43.760Z,2.10
2018-12-30T11:33:13.041Z,2.60
2018-12-30T11:36:12.328Z,1.70
2018-12-30T11:38:41.842Z,1.80
2018-12-30T11:41:11.123Z,1.80
2018-12-30T11:43:40.529Z,1.63
2018-12-30T11:46:10.286Z,1.87
2018-12-30T11:48:40.047Z,1.97
2018-12-30T11:51:09.571Z,1.57
2018-12-30T11:53:39.812Z,1.87
2018-12-30T11:56:09.214Z,2.03
2018-12-30T11:58:38.617Z,1.83
2018-12-30T12:01:07.894Z,1.90
2018-12-30T12:03:37.294Z,1.70
2018-12-30T12:06:06.940Z,1.50
2018-12-30T12:08:36.335Z,1.47
2018-12-30T12:11:05.977Z,1.83
2018-12-30T12:13:36.577Z,1.97
2018-12-30T12:16:05.980Z,1.53
2018-12-30T12:18:35.499Z,2.33
2018-12-30T12:21:05.261Z,1.67
2018-12-30T12:23:35.029Z,1.63
2018-12-30T12:26:12.644Z,1.70
2018-12-30T12:28:42.104Z,1.77
2018-12-30T12:31:11.506Z,2.03
2018-12-30T12:33:40.787Z,1.80
2018-12-30T12:36:10.188Z,1.60
2018-12-30T12:38:39.716Z,1.90
2018-12-30T12:41:08.992Z,1.70
2018-12-30T12:43:38.641Z,1.80
2018-12-30T12:46:08.044Z,2.03
2018-12-30T12:48:37.439Z,1.57
2018-12-30T12:51:06.971Z,1.77
2018-12-30T12:53:36.354Z,2.00
2018-12-30T12:56:06.957Z,1.90
2018-12-30T12:58:37.077Z,2.00
2018-12-30T13:01:09.958Z,1.77
2018-12-30T13:03:39.479Z,1.80
2018-12-30T13:06:09.000Z,1.53
2018-12-30T13:08:48.055Z,2.20
2018-12-30T13:11:17.401Z,1.70
2018-12-30T13:13:47.044Z,1.90
2018-12-30T13:16:16.330Z,1.97
2018-12-30T13:18:45.604Z,2.00
2018-12-30T13:21:14.887Z,2.93
2018-12-30T13:23:44.290Z,1.87
2018-12-30T13:26:13.688Z,1.63
2018-12-30T13:28:42.969Z,1.57
2018-12-30T13:31:12.370Z,2.00
2018-12-30T13:33:41.893Z,1.47
2018-12-30T13:36:12.613Z,1.80
2018-12-30T13:38:42.014Z,1.77
2018-12-30T13:41:11.539Z,1.97
2018-12-30T13:43:41.178Z,2.20
2018-12-30T13:46:10.817Z,1.60
2018-12-30T13:48:40.938Z,1.53
2018-12-30T13:54:38.542Z,2.50
2018-12-30T13:57:07.822Z,1.43
2018-12-30T13:59:38.454Z,2.17
2018-12-30T14:02:07.705Z,2.80
2018-12-30T14:04:37.105Z,1.60
2018-12-30T14:07:06.507Z,1.70
2018-12-30T14:09:35.788Z,1.93
2018-12-30T14:12:05.430Z,1.80
2018-12-30T14:14:34.950Z,2.13
2018-12-30T14:17:04.352Z,1.90
2018-12-30T14:19:33.634Z,1.90
2018-12-30T14:22:02.914Z,1.73
2018-12-30T14:24:32.437Z,1.77
2018-12-30T14:27:01.716Z,2.50
2018-12-30T14:29:31.117Z,2.10
2018-12-30T14:32:00.638Z,1.90
2018-12-30T14:34:30.039Z,1.80
2018-12-30T14:36:59.439Z,1.70
2018-12-30T14:39:28.721Z,1.90
2018-12-30T14:41:58.363Z,1.50
2018-12-30T14:44:27.643Z,1.93
2018-12-30T14:46:57.524Z,1.80
2018-12-30T14:49:27.646Z,2.17
2018-12-30T14:51:57.048Z,1.57
2018-12-30T14:54:26.328Z,1.53
2018-12-30T14:56:55.848Z,1.93
2018-12-30T14:59:25.129Z,2.03
2018-12-30T15:01:54.413Z,1.97
2018-12-30T15:04:23.811Z,1.70
2018-12-30T15:06:53.094Z,2.20
2018-12-30T15:09:22.734Z,1.97
2018-12-30T15:11:52.016Z,2.37
2018-12-30T15:14:21.297Z,2.20
2018-12-30T15:16:51.417Z,1.90
2018-12-30T15:19:21.059Z,2.60
2018-12-30T15:21:51.423Z,2.50
2018-12-30T15:24:20.948Z,2.67
2018-12-30T15:26:50.704Z,2.57
2018-12-30T15:29:20.463Z,2.23
2018-12-30T15:31:50.383Z,2.13
2018-12-30T15:34:20.120Z,2.33
2018-12-30T15:36:51.905Z,2.20
2018-12-30T15:39:21.692Z,2.50
2018-12-30T15:41:54.553Z,2.13
2018-12-30T15:44:23.948Z,2.70
2018-12-30T15:46:53.351Z,2.10
2018-12-30T15:49:23.233Z,2.00
2018-12-30T15:51:52.873Z,2.13
2018-12-30T15:54:22.152Z,2.53
2018-12-30T15:56:51.794Z,2.50
2018-12-30T15:59:21.315Z,2.90
2018-12-30T16:01:50.970Z,2.10
2018-12-30T16:04:20.236Z,2.23
2018-12-30T16:06:49.516Z,2.67
2018-12-30T16:09:18.917Z,2.13
2018-12-30T16:11:48.201Z,2.40
2018-12-30T16:14:17.719Z,2.20
2018-12-30T16:16:47.841Z,4.27
2018-12-30T16:19:17.602Z,2.63
2018-12-30T16:21:46.884Z,5.00
2018-12-30T16:24:16.764Z,4.60
2018-12-30T16:26:46.405Z,5.73
2018-12-30T16:29:15.807Z,3.83
2018-12-30T16:31:45.567Z,3.13
2018-12-30T16:34:14.848Z,4.67
2018-12-30T16:36:44.256Z,4.00
2018-12-30T16:39:13.657Z,5.73
2018-12-30T16:41:44.252Z,4.00
2018-12-30T16:44:13.774Z,5.33
2018-12-30T16:46:43.173Z,4.90
2018-12-30T16:49:24.576Z,4.23
2018-12-30T16:51:53.858Z,7.30
2018-12-30T16:54:23.258Z,6.40
2018-12-30T16:56:52.902Z,6.17
2018-12-30T16:59:22.182Z,4.43
2018-12-30T17:01:51.463Z,4.63
2018-12-30T17:04:20.743Z,5.10
2018-12-30T17:06:50.503Z,4.47
2018-12-30T17:09:20.023Z,5.07
2018-12-30T17:11:49.306Z,6.47
2018-12-30T17:14:18.589Z,7.17
2018-12-30T17:16:48.229Z,7.27
2018-12-30T17:19:24.116Z,6.30
2018-12-30T17:21:53.391Z,9.23
2018-12-30T17:24:22.669Z,6.13
2018-12-30T17:26:52.180Z,4.97
2018-12-30T17:29:21.353Z,4.60
2018-12-30T17:31:50.753Z,3.70
2018-12-30T17:34:29.875Z,4.50
2018-12-30T17:36:59.635Z,6.37
2018-12-30T17:39:28.917Z,8.37
2018-12-30T17:41:58.319Z,4.13
2018-12-30T17:44:27.598Z,4.90
2018-12-30T17:46:57.000Z,3.43
2018-12-30T17:49:26.761Z,3.47
2018-12-30T17:51:56.041Z,6.73
2018-12-30T17:54:25.924Z,5.30
2018-12-30T17:56:55.205Z,4.03
2018-12-30T17:59:24.846Z,29.57
2018-12-30T18:01:54.261Z,11.00
2018-12-30T18:04:23.888Z,6.37
2018-12-30T18:06:53.170Z,7.13
2018-12-30T18:09:22.452Z,5.03
2018-12-30T18:11:51.855Z,6.50
2018-12-30T18:14:21.255Z,4.80
2018-12-30T18:16:50.533Z,3.80
2018-12-30T18:19:20.655Z,4.80
2018-12-30T18:21:49.939Z,6.20
2018-12-30T18:24:19.218Z,7.57
2018-12-30T18:26:48.618Z,7.17
2018-12-30T18:29:18.140Z,13.00
2018-12-30T18:32:03.020Z,9.70
2018-12-30T18:34:32.541Z,5.70
2018-12-30T18:37:02.542Z,8.37
2018-12-30T18:39:31.824Z,11.57
2018-12-30T18:42:01.586Z,12.90
2018-12-30T18:44:31.107Z,7.80
2018-12-30T18:47:00.507Z,6.10
2018-12-30T18:49:30.148Z,7.13
2018-12-30T18:51:59.669Z,6.37
2018-12-30T18:54:28.951Z,5.00
2018-12-30T18:56:58.234Z,5.83
2018-12-30T18:59:27.512Z,5.50
2018-12-30T19:01:56.793Z,4.57
2018-12-30T19:07:54.636Z,4.90
2018-12-30T19:10:23.917Z,4.83
2018-12-30T19:12:53.317Z,4.80
2018-12-30T19:15:22.600Z,4.70
2018-12-30T19:17:51.880Z,4.50
2018-12-30T19:20:21.766Z,5.23
2018-12-30T19:23:02.685Z,5.07
2018-12-30T19:25:39.087Z,6.67
2018-12-30T19:28:19.513Z,5.03
2018-12-30T19:30:45.166Z,5.40
2018-12-30T19:33:14.687Z,7.43
2018-12-30T19:35:44.568Z,6.23
2018-12-30T19:38:13.849Z,5.77
2018-12-30T19:40:43.130Z,5.50
2018-12-30T19:43:12.771Z,6.80
2018-12-30T19:45:42.532Z,6.23
2018-12-30T19:48:11.933Z,6.33
2018-12-30T19:50:41.214Z,6.77
2018-12-30T19:53:10.495Z,7.87
2018-12-30T19:55:40.256Z,7.33
2018-12-30T19:58:09.536Z,7.23
2018-12-30T20:00:38.818Z,7.50
2018-12-30T20:03:08.219Z,7.40
2018-12-30T20:05:37.740Z,7.07
2018-12-30T20:08:07.143Z,7.47
2018-12-30T20:10:36.782Z,7.73
2018-12-30T20:13:09.078Z,7.80
2018-12-30T20:15:37.386Z,6.83
2018-12-30T20:18:06.666Z,7.03
2018-12-30T20:20:35.949Z,7.13
2018-12-30T20:23:05.228Z,6.80
2018-12-30T20:25:35.416Z,6.53
2018-12-30T20:28:04.941Z,7.33
2018-12-30T20:30:34.275Z,7.20
2018-12-30T20:33:04.271Z,8.00
2018-12-30T20:35:33.913Z,7.17
2018-12-30T20:38:03.195Z,6.67
2018-12-30T20:40:32.474Z,7.60
2018-12-30T20:43:09.798Z,6.53
2018-12-30T20:45:39.199Z,6.70
2018-12-30T20:48:08.479Z,6.20
2018-12-30T20:50:37.762Z,6.13
2018-12-30T20:53:07.160Z,6.23
2018-12-30T20:55:36.441Z,6.17
2018-12-30T20:58:05.722Z,6.10
2018-12-30T21:00:35.004Z,6.37
2018-12-30T21:03:04.405Z,6.00
2018-12-30T21:05:33.685Z,6.13
2018-12-30T21:08:03.087Z,5.47
2018-12-30T21:10:32.368Z,5.80
2018-12-30T21:13:01.650Z,5.40
2018-12-30T21:15:31.050Z,5.83
2018-12-30T21:18:00.451Z,6.27
2018-12-30T21:20:33.041Z,6.20
2018-12-30T21:23:02.373Z,6.40
2018-12-30T21:25:31.655Z,5.03
2018-12-30T21:28:01.057Z,6.47
2018-12-30T21:30:30.339Z,6.33
2018-12-30T21:32:59.979Z,6.30
2018-12-30T21:35:29.499Z,6.23
2018-12-30T21:37:58.780Z,6.20
2018-12-30T21:40:28.182Z,6.63
2018-12-30T21:42:57.822Z,6.73
2018-12-30T21:45:27.706Z,6.57
2018-12-30T21:47:57.103Z,6.47
2018-12-30T21:50:26.388Z,6.93
2018-12-30T21:52:55.785Z,6.87
2018-12-30T21:55:25.307Z,6.73
2018-12-30T21:58:15.590Z,6.57
2018-12-30T22:00:44.991Z,5.80
2018-12-30T22:03:14.513Z,6.50
2018-12-30T22:05:43.791Z,6.27
2018-12-30T22:08:13.072Z,6.13
2018-12-30T22:10:42.355Z,6.30
2018-12-30T22:13:11.767Z,7.07
2018-12-30T22:15:41.396Z,7.33
2018-12-30T22:18:10.677Z,6.23
2018-12-30T22:20:40.442Z,6.17
2018-12-30T22:23:09.840Z,7.30
2018-12-30T22:25:39.122Z,6.60
2018-12-30T22:28:08.401Z,7.20
2018-12-30T22:30:37.683Z,6.83
2018-12-30T22:33:07.684Z,6.60
2018-12-30T22:35:36.964Z,6.60
2018-12-30T22:38:06.246Z,6.87
2018-12-30T22:40:35.887Z,7.60
2018-12-30T22:43:05.287Z,6.73
2018-12-30T22:45:34.568Z,7.33
2018-12-30T22:48:03.849Z,6.77
2018-12-30T22:50:33.130Z,7.47
2018-12-30T22:53:02.653Z,7.10
2018-12-30T22:55:32.295Z,6.83
2018-12-30T22:58:01.574Z,6.97
2018-12-30T23:00:48.856Z,7.23
2018-12-30T23:03:18.259Z,7.40
2018-12-30T23:05:47.539Z,8.10
2018-12-30T23:08:16.818Z,7.33
2018-12-30T23:10:47.780Z,7.40
2018-12-30T23:13:20.542Z,7.60
2018-12-30T23:15:51.522Z,7.53
2018-12-30T23:18:22.396Z,8.17
2018-12-30T23:20:53.203Z,7.37
2018-12-30T23:23:24.043Z,8.03
2018-12-30T23:25:55.245Z,7.37
2018-12-30T23:28:25.602Z,7.80
2018-12-30T23:30:56.446Z,6.87
2018-12-30T23:33:27.287Z,7.70
2018-12-30T23:35:58.244Z,7.67
2018-12-30T23:38:28.609Z,8.30
2018-12-30T23:40:59.566Z,7.43
2018-12-30T23:43:29.807Z,7.43
2018-12-30T23:46:00.165Z,7.33
2018-12-30T23:48:30.405Z,7.67
2018-12-30T23:51:00.646Z,7.27
2018-12-30T23:53:33.889Z,7.70
2018-12-30T23:56:04.005Z,7.67
2018-12-30T23:58:34.247Z,8.40
